sensor_id;sensor_type;location;lat;lon;timestamp;pressure;altitude;pressure_sealevel;temperature;humidity
80164;BME280;70071;55.130;61.268;2023-08-24T00:01:18;97444.53;;;17.87;42.78
80164;BME280;70071;55.130;61.268;2023-08-24T00:03:44;97435.41;;;17.83;42.91
80164;BME280;70071;55.130;61.268;2023-08-24T00:06:12;97463.88;;;17.94;42.87
80164;BME280;70071;55.130;61.268;2023-08-24T00:08:38;97406.44;;;17.64;43.21
80164;BME280;70071;55.130;61.268;2023-08-24T00:11:04;97430.59;;;17.69;42.95
80164;BME280;70071;55.130;61.268;2023-08-24T00:13:31;97438.09;;;17.72;42.91
80164;BME280;70071;55.130;61.268;2023-08-24T00:15:57;97452.31;;;17.88;42.59
80164;BME280;70071;55.130;61.268;2023-08-24T00:18:24;97465.50;;;18.05;42.65
80164;BME280;70071;55.130;61.268;2023-08-24T00:20:50;97448.56;;;17.84;42.95
80164;BME280;70071;55.130;61.268;2023-08-24T00:23:16;97473.28;;;18.07;42.78
80164;BME280;70071;55.130;61.268;2023-08-24T00:25:42;97473.53;;;17.90;43.34
80164;BME280;70071;55.130;61.268;2023-08-24T00:28:08;97425.78;;;17.51;43.12
80164;BME280;70071;55.130;61.268;2023-08-24T00:30:34;97450.97;;;17.60;42.83
80164;BME280;70071;55.130;61.268;2023-08-24T00:33:01;97443.47;;;17.47;42.95
80164;BME280;70071;55.130;61.268;2023-08-24T00:35:26;97476.44;;;17.57;42.78
80164;BME280;70071;55.130;61.268;2023-08-24T00:37:52;97438.63;;;17.28;43.06
80164;BME280;70071;55.130;61.268;2023-08-24T00:40:18;97441.84;;;17.25;42.71
80164;BME280;70071;55.130;61.268;2023-08-24T00:42:45;97478.03;;;17.38;42.68
80164;BME280;70071;55.130;61.268;2023-08-24T00:45:14;97461.38;;;17.26;42.78
80164;BME280;70071;55.130;61.268;2023-08-24T00:47:41;97488.25;;;17.56;42.23
80164;BME280;70071;55.130;61.268;2023-08-24T00:50:08;97487.38;;;17.20;42.53
80164;BME280;70071;55.130;61.268;2023-08-24T00:52:40;97467.81;;;17.14;42.71
80164;BME280;70071;55.130;61.268;2023-08-24T00:55:07;97480.38;;;17.09;42.50
80164;BME280;70071;55.130;61.268;2023-08-24T00:57:35;97467.00;;;17.14;42.45
80164;BME280;70071;55.130;61.268;2023-08-24T01:00:05;97472.13;;;17.20;42.08
80164;BME280;70071;55.130;61.268;2023-08-24T01:02:32;97447.09;;;16.94;42.39
80164;BME280;70071;55.130;61.268;2023-08-24T01:04:59;97483.09;;;17.19;42.30
80164;BME280;70071;55.130;61.268;2023-08-24T01:07:25;97478.47;;;16.99;42.40
80164;BME280;70071;55.130;61.268;2023-08-24T01:09:51;97483.81;;;16.94;42.56
80164;BME280;70071;55.130;61.268;2023-08-24T01:17:43;97480.00;;;16.79;42.46
80164;BME280;70071;55.130;61.268;2023-08-24T01:20:10;97475.13;;;16.71;42.53
80164;BME280;70071;55.130;61.268;2023-08-24T01:26:17;97499.09;;;17.03;42.72
80164;BME280;70071;55.130;61.268;2023-08-24T01:28:45;97505.00;;;17.00;42.37
80164;BME280;70071;55.130;61.268;2023-08-24T01:31:13;97512.81;;;17.07;42.90
80164;BME280;70071;55.130;61.268;2023-08-24T01:33:41;97514.41;;;17.03;42.25
80164;BME280;70071;55.130;61.268;2023-08-24T01:36:08;97521.94;;;17.11;42.15
80164;BME280;70071;55.130;61.268;2023-08-24T01:38:35;97510.03;;;16.86;42.65
80164;BME280;70071;55.130;61.268;2023-08-24T01:43:36;97492.81;;;16.77;42.66
80164;BME280;70071;55.130;61.268;2023-08-24T01:46:06;97509.81;;;16.93;42.55
80164;BME280;70071;55.130;61.268;2023-08-24T01:48:33;97531.03;;;17.10;42.40
80164;BME280;70071;55.130;61.268;2023-08-24T01:51:01;97533.50;;;17.22;42.49
80164;BME280;70071;55.130;61.268;2023-08-24T01:53:31;97490.75;;;16.90;42.83
80164;BME280;70071;55.130;61.268;2023-08-24T01:55:57;97450.47;;;16.69;42.70
80164;BME280;70071;55.130;61.268;2023-08-24T01:58:23;97488.66;;;16.97;42.41
80164;BME280;70071;55.130;61.268;2023-08-24T02:00:49;97464.22;;;16.88;42.84
80164;BME280;70071;55.130;61.268;2023-08-24T02:03:15;97447.03;;;16.79;42.82
80164;BME280;70071;55.130;61.268;2023-08-24T02:05:41;97439.78;;;16.69;42.87
80164;BME280;70071;55.130;61.268;2023-08-24T02:08:10;97530.00;;;17.16;43.19
80164;BME280;70071;55.130;61.268;2023-08-24T02:10:36;97538.50;;;17.03;43.12
80164;BME280;70071;55.130;61.268;2023-08-24T02:13:02;97544.19;;;17.07;43.13
80164;BME280;70071;55.130;61.268;2023-08-24T02:15:28;97467.75;;;16.41;43.27
80164;BME280;70071;55.130;61.268;2023-08-24T02:17:56;97504.59;;;16.71;43.43
80164;BME280;70071;55.130;61.268;2023-08-24T02:20:22;97530.78;;;17.07;43.22
80164;BME280;70071;55.130;61.268;2023-08-24T02:22:48;97523.22;;;17.03;43.33
80164;BME280;70071;55.130;61.268;2023-08-24T02:25:13;97520.53;;;16.98;43.15
80164;BME280;70071;55.130;61.268;2023-08-24T02:27:39;97546.31;;;17.10;43.31
80164;BME280;70071;55.130;61.268;2023-08-24T02:30:06;97529.28;;;16.78;43.31
80164;BME280;70071;55.130;61.268;2023-08-24T02:32:32;97509.88;;;16.61;42.90
80164;BME280;70071;55.130;61.268;2023-08-24T02:34:58;97540.63;;;16.96;42.80
80164;BME280;70071;55.130;61.268;2023-08-24T02:37:24;97513.28;;;16.99;42.32
80164;BME280;70071;55.130;61.268;2023-08-24T02:39:50;97503.09;;;16.96;42.41
80164;BME280;70071;55.130;61.268;2023-08-24T02:42:16;97545.25;;;17.11;42.37
80164;BME280;70071;55.130;61.268;2023-08-24T02:44:42;97473.84;;;16.84;42.34
80164;BME280;70071;55.130;61.268;2023-08-24T02:47:08;97480.63;;;17.02;42.00
80164;BME280;70071;55.130;61.268;2023-08-24T02:49:37;97486.25;;;17.00;41.75
80164;BME280;70071;55.130;61.268;2023-08-24T02:52:03;97502.41;;;17.26;41.43
80164;BME280;70071;55.130;61.268;2023-08-24T02:54:29;97462.97;;;17.11;41.85
80164;BME280;70071;55.130;61.268;2023-08-24T02:56:55;97515.03;;;17.41;41.70
80164;BME280;70071;55.130;61.268;2023-08-24T02:59:21;97495.97;;;17.27;41.26
80164;BME280;70071;55.130;61.268;2023-08-24T03:01:47;97546.44;;;17.61;41.39
80164;BME280;70071;55.130;61.268;2023-08-24T03:04:12;97518.53;;;17.42;41.29
80164;BME280;70071;55.130;61.268;2023-08-24T03:06:38;97563.13;;;17.73;41.10
80164;BME280;70071;55.130;61.268;2023-08-24T03:09:10;97574.38;;;17.81;40.84
80164;BME280;70071;55.130;61.268;2023-08-24T03:11:36;97476.41;;;17.27;40.92
80164;BME280;70071;55.130;61.268;2023-08-24T03:14:02;97551.06;;;17.86;40.50
80164;BME280;70071;55.130;61.268;2023-08-24T03:16:27;97528.00;;;17.75;40.14
80164;BME280;70071;55.130;61.268;2023-08-24T03:18:53;97533.06;;;17.82;39.93
80164;BME280;70071;55.130;61.268;2023-08-24T03:21:19;97560.25;;;18.01;39.78
80164;BME280;70071;55.130;61.268;2023-08-24T03:23:45;97548.69;;;17.95;39.86
80164;BME280;70071;55.130;61.268;2023-08-24T03:26:14;97539.81;;;17.94;39.74
80164;BME280;70071;55.130;61.268;2023-08-24T03:28:42;97525.56;;;17.84;39.03
80164;BME280;70071;55.130;61.268;2023-08-24T03:31:08;97543.25;;;17.59;37.79
80164;BME280;70071;55.130;61.268;2023-08-24T03:33:34;97555.31;;;17.62;38.36
80164;BME280;70071;55.130;61.268;2023-08-24T03:36:01;97570.97;;;18.11;38.26
80164;BME280;70071;55.130;61.268;2023-08-24T03:38:32;97474.59;;;17.63;37.65
80164;BME280;70071;55.130;61.268;2023-08-24T03:41:04;97505.69;;;17.74;37.63
80164;BME280;70071;55.130;61.268;2023-08-24T03:43:32;97569.59;;;18.44;38.14
80164;BME280;70071;55.130;61.268;2023-08-24T03:45:59;97553.25;;;18.15;38.16
80164;BME280;70071;55.130;61.268;2023-08-24T03:48:26;97558.88;;;18.24;38.24
80164;BME280;70071;55.130;61.268;2023-08-24T03:50:56;97562.63;;;18.33;38.62
80164;BME280;70071;55.130;61.268;2023-08-24T03:53:24;97516.19;;;18.12;37.88
80164;BME280;70071;55.130;61.268;2023-08-24T03:55:54;97539.56;;;18.01;38.81
80164;BME280;70071;55.130;61.268;2023-08-24T03:58:20;97514.00;;;17.57;38.62
80164;BME280;70071;55.130;61.268;2023-08-24T04:00:46;97573.84;;;17.79;39.22
80164;BME280;70071;55.130;61.268;2023-08-24T04:03:12;97522.22;;;17.15;39.98
80164;BME280;70071;55.130;61.268;2023-08-24T04:05:38;97550.22;;;17.65;40.13
80164;BME280;70071;55.130;61.268;2023-08-24T04:08:05;97574.44;;;18.06;39.60
80164;BME280;70071;55.130;61.268;2023-08-24T04:10:31;97549.75;;;17.89;39.18
80164;BME280;70071;55.130;61.268;2023-08-24T04:12:57;97531.69;;;17.48;40.21
80164;BME280;70071;55.130;61.268;2023-08-24T04:15:23;97528.22;;;17.48;40.02
80164;BME280;70071;55.130;61.268;2023-08-24T04:17:49;97534.56;;;17.26;39.04
80164;BME280;70071;55.130;61.268;2023-08-24T04:20:15;97569.50;;;17.52;39.56
80164;BME280;70071;55.130;61.268;2023-08-24T04:22:42;97534.09;;;17.55;38.75
80164;BME280;70071;55.130;61.268;2023-08-24T04:25:08;97536.72;;;17.24;38.83
80164;BME280;70071;55.130;61.268;2023-08-24T04:27:36;97521.75;;;17.38;38.64
80164;BME280;70071;55.130;61.268;2023-08-24T04:30:02;97566.88;;;17.77;38.87
80164;BME280;70071;55.130;61.268;2023-08-24T04:32:33;97582.09;;;17.46;39.23
80164;BME280;70071;55.130;61.268;2023-08-24T04:34:59;97529.03;;;17.58;39.15
80164;BME280;70071;55.130;61.268;2023-08-24T04:37:25;97521.63;;;17.02;39.74
80164;BME280;70071;55.130;61.268;2023-08-24T04:39:50;97470.16;;;16.95;39.57
80164;BME280;70071;55.130;61.268;2023-08-24T04:42:16;97500.81;;;17.25;39.95
80164;BME280;70071;55.130;61.268;2023-08-24T04:44:42;97522.28;;;17.40;39.43
80164;BME280;70071;55.130;61.268;2023-08-24T04:47:08;97553.69;;;17.66;39.55
80164;BME280;70071;55.130;61.268;2023-08-24T04:49:36;97571.66;;;17.55;39.87
80164;BME280;70071;55.130;61.268;2023-08-24T04:52:02;97544.34;;;17.79;38.29
80164;BME280;70071;55.130;61.268;2023-08-24T04:54:28;97561.28;;;18.05;38.63
80164;BME280;70071;55.130;61.268;2023-08-24T04:56:57;97543.00;;;17.71;38.89
80164;BME280;70071;55.130;61.268;2023-08-24T04:59:23;97472.16;;;17.56;38.29
80164;BME280;70071;55.130;61.268;2023-08-24T05:01:50;97486.88;;;17.33;39.27
80164;BME280;70071;55.130;61.268;2023-08-24T05:04:15;97541.91;;;17.62;39.54
80164;BME280;70071;55.130;61.268;2023-08-24T05:06:41;97564.19;;;17.72;39.29
80164;BME280;70071;55.130;61.268;2023-08-24T05:09:08;97549.22;;;18.07;37.75
80164;BME280;70071;55.130;61.268;2023-08-24T05:11:34;97530.72;;;17.90;37.22
80164;BME280;70071;55.130;61.268;2023-08-24T05:14:00;97552.97;;;18.17;37.95
80164;BME280;70071;55.130;61.268;2023-08-24T05:16:26;97555.66;;;18.42;36.11
80164;BME280;70071;55.130;61.268;2023-08-24T05:18:53;97548.38;;;18.43;36.12
80164;BME280;70071;55.130;61.268;2023-08-24T05:21:19;97538.22;;;18.19;36.17
80164;BME280;70071;55.130;61.268;2023-08-24T05:23:45;97488.78;;;17.79;36.26
80164;BME280;70071;55.130;61.268;2023-08-24T05:26:11;97530.72;;;18.16;35.71
80164;BME280;70071;55.130;61.268;2023-08-24T05:28:38;97557.25;;;18.28;36.22
80164;BME280;70071;55.130;61.268;2023-08-24T05:31:04;97562.38;;;17.99;36.45
80164;BME280;70071;55.130;61.268;2023-08-24T05:33:30;97545.72;;;17.97;35.35
80164;BME280;70071;55.130;61.268;2023-08-24T05:35:58;97527.44;;;17.78;35.32
80164;BME280;70071;55.130;61.268;2023-08-24T05:38:24;97540.91;;;17.99;35.79
80164;BME280;70071;55.130;61.268;2023-08-24T05:40:50;97557.00;;;18.24;34.47
80164;BME280;70071;55.130;61.268;2023-08-24T05:43:18;97549.75;;;18.20;34.48
80164;BME280;70071;55.130;61.268;2023-08-24T05:45:45;97561.56;;;18.29;33.57
80164;BME280;70071;55.130;61.268;2023-08-24T05:48:12;97551.34;;;18.52;33.51
80164;BME280;70071;55.130;61.268;2023-08-24T05:50:44;97531.78;;;18.25;34.69
80164;BME280;70071;55.130;61.268;2023-08-24T05:53:10;97548.66;;;17.90;35.36
80164;BME280;70071;55.130;61.268;2023-08-24T05:55:38;97529.88;;;18.00;35.07
80164;BME280;70071;55.130;61.268;2023-08-24T05:58:05;97507.34;;;17.86;35.78
80164;BME280;70071;55.130;61.268;2023-08-24T06:00:31;97527.13;;;17.49;35.93
80164;BME280;70071;55.130;61.268;2023-08-24T06:02:57;97520.75;;;17.70;35.19
80164;BME280;70071;55.130;61.268;2023-08-24T06:05:22;97533.66;;;18.20;33.76
80164;BME280;70071;55.130;61.268;2023-08-24T06:07:49;97531.97;;;18.65;33.77
80164;BME280;70071;55.130;61.268;2023-08-24T06:10:15;97535.25;;;18.21;33.79
80164;BME280;70071;55.130;61.268;2023-08-24T06:12:40;97517.78;;;18.44;34.11
80164;BME280;70071;55.130;61.268;2023-08-24T06:15:06;97528.81;;;18.22;34.55
80164;BME280;70071;55.130;61.268;2023-08-24T06:17:35;97546.19;;;18.76;34.20
80164;BME280;70071;55.130;61.268;2023-08-24T06:20:03;97548.94;;;18.35;34.69
80164;BME280;70071;55.130;61.268;2023-08-24T06:22:31;97549.16;;;18.54;34.45
80164;BME280;70071;55.130;61.268;2023-08-24T06:24:57;97522.50;;;18.83;34.28
80164;BME280;70071;55.130;61.268;2023-08-24T06:27:26;97550.22;;;18.68;34.44
80164;BME280;70071;55.130;61.268;2023-08-24T06:29:53;97550.28;;;18.17;34.76
80164;BME280;70071;55.130;61.268;2023-08-24T06:32:19;97521.00;;;18.41;34.13
80164;BME280;70071;55.130;61.268;2023-08-24T06:34:45;97566.94;;;18.39;34.99
80164;BME280;70071;55.130;61.268;2023-08-24T06:37:11;97559.13;;;18.43;35.34
80164;BME280;70071;55.130;61.268;2023-08-24T06:39:37;97551.34;;;18.46;34.45
80164;BME280;70071;55.130;61.268;2023-08-24T06:42:03;97557.25;;;18.13;34.81
80164;BME280;70071;55.130;61.268;2023-08-24T06:44:29;97558.59;;;18.51;34.21
80164;BME280;70071;55.130;61.268;2023-08-24T06:46:55;97514.84;;;18.20;34.59
80164;BME280;70071;55.130;61.268;2023-08-24T06:49:21;97492.81;;;18.43;34.04
80164;BME280;70071;55.130;61.268;2023-08-24T06:51:47;97542.31;;;19.18;33.53
80164;BME280;70071;55.130;61.268;2023-08-24T06:54:12;97542.13;;;18.94;32.84
80164;BME280;70071;55.130;61.268;2023-08-24T06:56:40;97564.00;;;18.36;34.77
80164;BME280;70071;55.130;61.268;2023-08-24T06:59:06;97509.69;;;18.64;33.63
80164;BME280;70071;55.130;61.268;2023-08-24T07:01:32;97536.75;;;18.94;33.43
80164;BME280;70071;55.130;61.268;2023-08-24T07:03:57;97543.19;;;18.93;33.73
80164;BME280;70071;55.130;61.268;2023-08-24T07:06:23;97510.28;;;19.22;32.91
80164;BME280;70071;55.130;61.268;2023-08-24T07:08:50;97514.63;;;19.12;33.47
80164;BME280;70071;55.130;61.268;2023-08-24T07:11:16;97481.56;;;18.21;34.67
80164;BME280;70071;55.130;61.268;2023-08-24T07:13:43;97547.88;;;18.31;35.66
80164;BME280;70071;55.130;61.268;2023-08-24T07:16:08;97524.25;;;18.12;36.10
80164;BME280;70071;55.130;61.268;2023-08-24T07:18:35;97515.31;;;17.55;35.81
80164;BME280;70071;55.130;61.268;2023-08-24T07:21:00;97515.94;;;18.24;35.59
80164;BME280;70071;55.130;61.268;2023-08-24T07:23:26;97573.84;;;18.76;35.98
80164;BME280;70071;55.130;61.268;2023-08-24T07:25:55;97565.84;;;18.45;36.76
80164;BME280;70071;55.130;61.268;2023-08-24T07:28:21;97545.19;;;18.36;35.11
80164;BME280;70071;55.130;61.268;2023-08-24T07:30:47;97519.59;;;18.74;34.87
80164;BME280;70071;55.130;61.268;2023-08-24T07:33:13;97538.50;;;18.07;35.71
80164;BME280;70071;55.130;61.268;2023-08-24T07:38:53;97470.06;;;18.00;35.39
80164;BME280;70071;55.130;61.268;2023-08-24T07:41:38;97446.16;;;18.08;34.10
80164;BME280;70071;55.130;61.268;2023-08-24T07:44:04;97477.38;;;18.75;34.15
80164;BME280;70071;55.130;61.268;2023-08-24T07:46:30;97501.28;;;18.81;33.99
80164;BME280;70071;55.130;61.268;2023-08-24T07:48:56;97566.59;;;18.87;35.65
80164;BME280;70071;55.130;61.268;2023-08-24T07:51:25;97557.72;;;18.81;34.59
80164;BME280;70071;55.130;61.268;2023-08-24T07:53:52;97545.09;;;18.87;34.53
80164;BME280;70071;55.130;61.268;2023-08-24T07:56:18;97538.22;;;19.21;34.02
80164;BME280;70071;55.130;61.268;2023-08-24T07:58:44;97541.78;;;19.11;33.35
80164;BME280;70071;55.130;61.268;2023-08-24T08:01:11;97551.78;;;19.55;32.77
80164;BME280;70071;55.130;61.268;2023-08-24T08:03:37;97548.69;;;18.16;35.16
80164;BME280;70071;55.130;61.268;2023-08-24T08:06:03;97458.81;;;18.94;32.94
80164;BME280;70071;55.130;61.268;2023-08-24T08:08:31;97557.53;;;18.42;34.58
80164;BME280;70071;55.130;61.268;2023-08-24T08:10:59;97531.78;;;18.25;35.53
80164;BME280;70071;55.130;61.268;2023-08-24T08:13:28;97548.06;;;18.70;34.70
80164;BME280;70071;55.130;61.268;2023-08-24T08:16:10;97544.22;;;19.02;34.69
80164;BME280;70071;55.130;61.268;2023-08-24T08:18:36;97571.59;;;19.14;34.69
80164;BME280;70071;55.130;61.268;2023-08-24T08:21:10;97496.13;;;19.06;34.50
80164;BME280;70071;55.130;61.268;2023-08-24T08:23:37;97514.63;;;19.12;34.14
80164;BME280;70071;55.130;61.268;2023-08-24T08:26:03;97555.94;;;19.32;33.39
80164;BME280;70071;55.130;61.268;2023-08-24T08:28:29;97523.69;;;19.71;33.02
80164;BME280;70071;55.130;61.268;2023-08-24T08:30:55;97476.06;;;19.77;32.84
80164;BME280;70071;55.130;61.268;2023-08-24T08:33:21;97509.31;;;19.92;32.51
80164;BME280;70071;55.130;61.268;2023-08-24T08:35:49;97551.88;;;19.90;32.52
80164;BME280;70071;55.130;61.268;2023-08-24T08:38:15;97553.22;;;20.21;31.68
80164;BME280;70071;55.130;61.268;2023-08-24T08:40:41;97520.72;;;19.73;31.80
80164;BME280;70071;55.130;61.268;2023-08-24T08:43:07;97560.13;;;19.53;32.13
80164;BME280;70071;55.130;61.268;2023-08-24T08:45:33;97548.16;;;19.80;31.72
80164;BME280;70071;55.130;61.268;2023-08-24T08:48:02;97537.91;;;19.87;31.41
80164;BME280;70071;55.130;61.268;2023-08-24T08:50:30;97567.22;;;20.23;31.89
80164;BME280;70071;55.130;61.268;2023-08-24T08:52:58;97564.63;;;20.42;31.80
80164;BME280;70071;55.130;61.268;2023-08-24T08:55:25;97493.69;;;19.54;32.00
80164;BME280;70071;55.130;61.268;2023-08-24T08:57:56;97500.53;;;19.31;32.41
80164;BME280;70071;55.130;61.268;2023-08-24T09:00:24;97520.38;;;19.45;32.36
80164;BME280;70071;55.130;61.268;2023-08-24T09:02:54;97532.34;;;19.24;32.50
80164;BME280;70071;55.130;61.268;2023-08-24T09:05:22;97554.56;;;19.40;32.57
80164;BME280;70071;55.130;61.268;2023-08-24T09:07:53;97544.03;;;19.93;32.34
80164;BME280;70071;55.130;61.268;2023-08-24T09:10:23;97522.25;;;19.45;32.19
80164;BME280;70071;55.130;61.268;2023-08-24T09:12:49;97568.22;;;20.33;32.02
80164;BME280;70071;55.130;61.268;2023-08-24T09:15:23;97521.00;;;20.11;31.36
80164;BME280;70071;55.130;61.268;2023-08-24T09:17:50;97511.22;;;20.20;31.36
80164;BME280;70071;55.130;61.268;2023-08-24T09:20:17;97563.81;;;20.42;31.64
80164;BME280;70071;55.130;61.268;2023-08-24T09:22:43;97580.44;;;20.54;32.34
80164;BME280;70071;55.130;61.268;2023-08-24T09:25:10;97519.41;;;19.26;32.58
80164;BME280;70071;55.130;61.268;2023-08-24T09:27:37;97567.13;;;19.49;32.45
80164;BME280;70071;55.130;61.268;2023-08-24T09:30:02;97578.63;;;19.65;32.84
80164;BME280;70071;55.130;61.268;2023-08-24T09:32:32;97588.00;;;19.18;33.09
80164;BME280;70071;55.130;61.268;2023-08-24T09:35:08;97558.75;;;20.06;32.27
80164;BME280;70071;55.130;61.268;2023-08-24T09:37:35;97553.72;;;20.29;31.24
80164;BME280;70071;55.130;61.268;2023-08-24T09:40:06;97544.13;;;20.47;30.54
80164;BME280;70071;55.130;61.268;2023-08-24T09:42:38;97568.41;;;20.41;30.96
80164;BME280;70071;55.130;61.268;2023-08-24T09:45:11;97576.00;;;20.93;31.13
80164;BME280;70071;55.130;61.268;2023-08-24T09:47:38;97566.56;;;20.66;31.30
80164;BME280;70071;55.130;61.268;2023-08-24T09:50:04;97561.06;;;20.82;30.43
80164;BME280;70071;55.130;61.268;2023-08-24T09:52:34;97511.03;;;19.77;31.77
80164;BME280;70071;55.130;61.268;2023-08-24T09:55:04;97544.00;;;21.10;30.77
80164;BME280;70071;55.130;61.268;2023-08-24T09:57:37;97571.31;;;21.71;29.91
80164;BME280;70071;55.130;61.268;2023-08-24T10:00:07;97590.75;;;21.01;30.29
80164;BME280;70071;55.130;61.268;2023-08-24T10:05:13;97573.53;;;20.97;30.49
80164;BME280;70071;55.130;61.268;2023-08-24T10:07:54;97562.53;;;21.17;30.38
80164;BME280;70071;55.130;61.268;2023-08-24T10:10:22;97585.91;;;21.46;29.83
80164;BME280;70071;55.130;61.268;2023-08-24T10:12:51;97575.69;;;21.43;30.48
80164;BME280;70071;55.130;61.268;2023-08-24T10:15:19;97536.94;;;20.90;30.81
80164;BME280;70071;55.130;61.268;2023-08-24T10:17:49;97508.00;;;21.20;28.92
80164;BME280;70071;55.130;61.268;2023-08-24T10:20:19;97561.66;;;22.03;29.44
80164;BME280;70071;55.130;61.268;2023-08-24T10:22:46;97527.00;;;21.53;28.51
80164;BME280;70071;55.130;61.268;2023-08-24T10:25:13;97577.13;;;21.59;28.78
80164;BME280;70071;55.130;61.268;2023-08-24T10:27:39;97581.66;;;21.40;29.80
80164;BME280;70071;55.130;61.268;2023-08-24T10:30:11;97548.28;;;22.45;29.21
80164;BME280;70071;55.130;61.268;2023-08-24T10:32:39;97578.53;;;21.76;29.31
80164;BME280;70071;55.130;61.268;2023-08-24T10:35:06;97578.59;;;21.27;29.11
80164;BME280;70071;55.130;61.268;2023-08-24T10:37:33;97541.00;;;22.26;28.79
80164;BME280;70071;55.130;61.268;2023-08-24T10:40:01;97552.63;;;23.01;28.65
80164;BME280;70071;55.130;61.268;2023-08-24T10:42:43;97516.03;;;22.62;28.28
80164;BME280;70071;55.130;61.268;2023-08-24T10:45:10;97520.34;;;21.64;29.25
80164;BME280;70071;55.130;61.268;2023-08-24T10:47:44;97533.00;;;21.45;29.47
80164;BME280;70071;55.130;61.268;2023-08-24T10:50:14;97512.72;;;22.51;28.31
80164;BME280;70071;55.130;61.268;2023-08-24T10:52:43;97542.94;;;22.07;28.82
80164;BME280;70071;55.130;61.268;2023-08-24T10:55:23;97464.69;;;21.50;28.58
80164;BME280;70071;55.130;61.268;2023-08-24T10:57:59;97516.25;;;22.19;28.89
80164;BME280;70071;55.130;61.268;2023-08-24T11:00:31;97568.28;;;22.44;28.74
80164;BME280;70071;55.130;61.268;2023-08-24T11:02:57;97538.91;;;21.52;29.64
80164;BME280;70071;55.130;61.268;2023-08-24T11:05:26;97567.41;;;21.58;30.07
80164;BME280;70071;55.130;61.268;2023-08-24T11:07:57;97571.44;;;21.61;29.87
80164;BME280;70071;55.130;61.268;2023-08-24T11:10:25;97548.91;;;21.27;30.37
80164;BME280;70071;55.130;61.268;2023-08-24T11:13:04;97574.78;;;21.72;29.62
80164;BME280;70071;55.130;61.268;2023-08-24T11:15:44;97538.91;;;22.23;28.76
80164;BME280;70071;55.130;61.268;2023-08-24T11:18:26;97567.91;;;21.98;29.40
80164;BME280;70071;55.130;61.268;2023-08-24T11:20:54;97570.03;;;21.82;30.00
80164;BME280;70071;55.130;61.268;2023-08-24T11:23:23;97558.22;;;21.97;29.79
80164;BME280;70071;55.130;61.268;2023-08-24T11:25:51;97568.81;;;22.46;29.39
80164;BME280;70071;55.130;61.268;2023-08-24T11:28:22;97568.22;;;22.49;29.47
80164;BME280;70071;55.130;61.268;2023-08-24T11:30:48;97544.59;;;21.70;29.63
80164;BME280;70071;55.130;61.268;2023-08-24T11:33:26;97520.09;;;21.99;29.61
80164;BME280;70071;55.130;61.268;2023-08-24T11:35:52;97570.22;;;22.71;29.54
80164;BME280;70071;55.130;61.268;2023-08-24T11:38:18;97537.66;;;22.48;28.75
80164;BME280;70071;55.130;61.268;2023-08-24T11:40:46;97572.09;;;22.24;28.90
80164;BME280;70071;55.130;61.268;2023-08-24T11:43:12;97472.53;;;21.84;28.93
80164;BME280;70071;55.130;61.268;2023-08-24T11:45:46;97532.88;;;21.93;29.41
80164;BME280;70071;55.130;61.268;2023-08-24T11:48:12;97563.19;;;22.42;29.14
80164;BME280;70071;55.130;61.268;2023-08-24T11:50:38;97480.09;;;22.48;28.69
80164;BME280;70071;55.130;61.268;2023-08-24T11:53:06;97512.56;;;23.03;28.04
80164;BME280;70071;55.130;61.268;2023-08-24T11:55:32;97498.81;;;23.28;27.68
80164;BME280;70071;55.130;61.268;2023-08-24T11:58:00;97562.50;;;23.98;27.12
80164;BME280;70071;55.130;61.268;2023-08-24T12:00:27;97544.06;;;24.54;26.90
80164;BME280;70071;55.130;61.268;2023-08-24T12:02:53;97526.25;;;24.62;25.91
80164;BME280;70071;55.130;61.268;2023-08-24T12:05:26;97561.56;;;25.19;25.03
80164;BME280;70071;55.130;61.268;2023-08-24T12:07:54;97570.31;;;25.08;25.50
80164;BME280;70071;55.130;61.268;2023-08-24T12:10:21;97555.53;;;24.82;25.95
80164;BME280;70071;55.130;61.268;2023-08-24T12:12:47;97563.66;;;25.23;25.85
80164;BME280;70071;55.130;61.268;2023-08-24T12:15:34;97545.53;;;25.93;25.49
80164;BME280;70071;55.130;61.268;2023-08-24T12:18:12;97554.94;;;26.31;24.76
80164;BME280;70071;55.130;61.268;2023-08-24T12:20:40;97529.69;;;25.69;24.83
80164;BME280;70071;55.130;61.268;2023-08-24T12:23:07;97531.88;;;25.14;25.44
80164;BME280;70071;55.130;61.268;2023-08-24T12:25:38;97570.13;;;24.64;26.24
80164;BME280;70071;55.130;61.268;2023-08-24T12:28:13;97567.63;;;26.00;24.64
80164;BME280;70071;55.130;61.268;2023-08-24T12:30:48;97542.94;;;25.35;25.60
80164;BME280;70071;55.130;61.268;2023-08-24T12:33:28;97543.53;;;24.43;26.94
80164;BME280;70071;55.130;61.268;2023-08-24T12:35:55;97484.78;;;24.07;26.24
80164;BME280;70071;55.130;61.268;2023-08-24T12:38:24;97520.72;;;24.76;26.41
80164;BME280;70071;55.130;61.268;2023-08-24T12:40:54;97513.81;;;25.18;25.25
80164;BME280;70071;55.130;61.268;2023-08-24T12:43:21;97529.03;;;24.48;25.56
80164;BME280;70071;55.130;61.268;2023-08-24T12:45:47;97517.97;;;24.44;25.33
80164;BME280;70071;55.130;61.268;2023-08-24T12:48:12;97561.81;;;25.49;25.26
80164;BME280;70071;55.130;61.268;2023-08-24T12:50:38;97533.97;;;24.77;25.44
80164;BME280;70071;55.130;61.268;2023-08-24T12:53:05;97548.50;;;24.81;25.47
80164;BME280;70071;55.130;61.268;2023-08-24T12:55:36;97526.13;;;25.25;25.04
80164;BME280;70071;55.130;61.268;2023-08-24T12:58:02;97558.94;;;25.72;24.73
80164;BME280;70071;55.130;61.268;2023-08-24T13:00:29;97532.25;;;25.65;24.88
80164;BME280;70071;55.130;61.268;2023-08-24T13:02:55;97540.72;;;25.46;25.67
80164;BME280;70071;55.130;61.268;2023-08-24T13:05:21;97525.56;;;25.45;24.30
80164;BME280;70071;55.130;61.268;2023-08-24T13:07:48;97564.34;;;25.46;25.46
80164;BME280;70071;55.130;61.268;2023-08-24T13:10:14;97568.06;;;25.10;25.79